sensor_id;sensor_type;location;lat;lon;timestamp;pressure;altitude;pressure_sealevel;temperature;humidity
66880;BME280;53789;51.392;10.234;2022-10-16T00:00:14;97851.09;;;14.22;85.86
66880;BME280;53789;51.392;10.234;2022-10-16T00:00:36;97853.84;;;14.22;85.95
66880;BME280;53789;51.392;10.234;2022-10-16T00:00:57;97852.72;;;14.23;85.83
66880;BME280;53789;51.392;10.234;2022-10-16T00:01:20;97840.81;;;14.23;85.89
66880;BME280;53789;51.392;10.234;2022-10-16T00:01:41;97848.78;;;14.24;85.12
66880;BME280;53789;51.392;10.234;2022-10-16T00:02:02;97851.22;;;14.26;85.52
66880;BME280;53789;51.392;10.234;2022-10-16T00:02:22;97853.50;;;14.24;86.38
66880;BME280;53789;51.392;10.234;2022-10-16T00:02:42;97851.53;;;14.24;86.01
66880;BME280;53789;51.392;10.234;2022-10-16T00:03:03;97847.19;;;14.23;85.87
66880;BME280;53789;51.392;10.234;2022-10-16T00:03:24;97850.41;;;14.25;85.80
66880;BME280;53789;51.392;10.234;2022-10-16T00:03:45;97853.19;;;14.25;85.29
66880;BME280;53789;51.392;10.234;2022-10-16T00:04:06;97845.22;;;14.24;86.33
66880;BME280;53789;51.392;10.234;2022-10-16T00:04:26;97849.94;;;14.23;86.44
66880;BME280;53789;51.392;10.234;2022-10-16T00:04:46;97855.94;;;14.25;86.09
66880;BME280;53789;51.392;10.234;2022-10-16T00:05:07;97862.63;;;14.24;85.66
66880;BME280;53789;51.392;10.234;2022-10-16T00:05:27;97858.72;;;14.25;85.59
66880;BME280;53789;51.392;10.234;2022-10-16T00:05:47;97857.91;;;14.25;86.16
66880;BME280;53789;51.392;10.234;2022-10-16T00:06:09;97860.34;;;14.26;85.60
66880;BME280;53789;51.392;10.234;2022-10-16T00:06:30;97857.56;;;14.26;86.10
66880;BME280;53789;51.392;10.234;2022-10-16T00:06:51;97861.47;;;14.25;85.55
66880;BME280;53789;51.392;10.234;2022-10-16T00:07:11;97860.69;;;14.25;85.86
66880;BME280;53789;51.392;10.234;2022-10-16T00:07:32;97858.72;;;14.25;86.41
66880;BME280;53789;51.392;10.234;2022-10-16T00:07:52;97860.69;;;14.25;86.23
66880;BME280;53789;51.392;10.234;2022-10-16T00:08:13;97859.84;;;14.24;85.89
66880;BME280;53789;51.392;10.234;2022-10-16T00:08:34;97861.81;;;14.24;85.84
66880;BME280;53789;51.392;10.234;2022-10-16T00:08:55;97863.28;;;14.21;86.17
66880;BME280;53789;51.392;10.234;2022-10-16T00:09:15;97859.72;;;14.21;86.25
66880;BME280;53789;51.392;10.234;2022-10-16T00:09:36;97858.09;;;14.20;86.70
66880;BME280;53789;51.392;10.234;2022-10-16T00:09:56;97858.09;;;14.20;86.43
66880;BME280;53789;51.392;10.234;2022-10-16T00:10:16;97865.25;;;14.21;86.41
66880;BME280;53789;51.392;10.234;2022-10-16T00:10:37;97869.66;;;14.22;86.30
66880;BME280;53789;51.392;10.234;2022-10-16T00:11:18;97871.59;;;14.21;86.34
66880;BME280;53789;51.392;10.234;2022-10-16T00:11:40;97871.59;;;14.21;86.03
66880;BME280;53789;51.392;10.234;2022-10-16T00:12:00;97860.53;;;14.21;86.48
66880;BME280;53789;51.392;10.234;2022-10-16T00:12:21;97852.22;;;14.21;86.54
66880;BME280;53789;51.392;10.234;2022-10-16T00:12:41;97862.50;;;14.21;86.02
66880;BME280;53789;51.392;10.234;2022-10-16T00:13:02;97860.88;;;14.20;86.77
66880;BME280;53789;51.392;10.234;2022-10-16T00:13:23;97856.13;;;14.20;86.82
66880;BME280;53789;51.392;10.234;2022-10-16T00:13:45;97861.66;;;14.20;86.51
66880;BME280;53789;51.392;10.234;2022-10-16T00:14:12;97859.25;;;14.19;86.46
66880;BME280;53789;51.392;10.234;2022-10-16T00:14:33;97858.09;;;14.20;86.82
66880;BME280;53789;51.392;10.234;2022-10-16T00:14:53;97866.41;;;14.20;87.20
66880;BME280;53789;51.392;10.234;2022-10-16T00:15:13;97864.44;;;14.20;86.88
66880;BME280;53789;51.392;10.234;2022-10-16T00:15:35;97859.25;;;14.19;86.43
66880;BME280;53789;51.392;10.234;2022-10-16T00:15:57;97868.38;;;14.19;86.36
66880;BME280;53789;51.392;10.234;2022-10-16T00:16:18;97869.16;;;14.20;87.18
66880;BME280;53789;51.392;10.234;2022-10-16T00:16:39;97871.13;;;14.19;86.49
66880;BME280;53789;51.392;10.234;2022-10-16T00:16:59;97873.06;;;14.19;86.74
66880;BME280;53789;51.392;10.234;2022-10-16T00:17:19;97873.91;;;14.19;86.88
66880;BME280;53789;51.392;10.234;2022-10-16T00:17:40;97872.28;;;14.18;86.70
66880;BME280;53789;51.392;10.234;2022-10-16T00:18:00;97871.47;;;14.18;86.58
66880;BME280;53789;51.392;10.234;2022-10-16T00:18:20;97870.31;;;14.19;87.18
66880;BME280;53789;51.392;10.234;2022-10-16T00:18:42;97862.00;;;14.19;86.54
66880;BME280;53789;51.392;10.234;2022-10-16T00:19:03;97876.66;;;14.19;86.32
66880;BME280;53789;51.392;10.234;2022-10-16T00:19:23;97868.38;;;14.19;86.87
66880;BME280;53789;51.392;10.234;2022-10-16T00:19:43;97873.06;;;14.19;86.58
66880;BME280;53789;51.392;10.234;2022-10-16T00:20:04;97865.59;;;14.19;86.46
66880;BME280;53789;51.392;10.234;2022-10-16T00:20:25;97874.69;;;14.20;87.30
66880;BME280;53789;51.392;10.234;2022-10-16T00:20:45;97871.94;;;14.20;86.74
66880;BME280;53789;51.392;10.234;2022-10-16T00:21:09;97872.72;;;14.20;86.68
66880;BME280;53789;51.392;10.234;2022-10-16T00:21:31;97875.50;;;14.20;86.57
66880;BME280;53789;51.392;10.234;2022-10-16T00:21:51;97871.13;;;14.19;87.28
66880;BME280;53789;51.392;10.234;2022-10-16T00:22:12;97874.69;;;14.20;87.07
66880;BME280;53789;51.392;10.234;2022-10-16T00:22:32;97881.84;;;14.21;87.04
66880;BME280;53789;51.392;10.234;2022-10-16T00:22:53;97877.13;;;14.21;87.27
66880;BME280;53789;51.392;10.234;2022-10-16T00:23:13;97876.31;;;14.21;86.40
66880;BME280;53789;51.392;10.234;2022-10-16T00:23:34;97875.50;;;14.20;86.68
66880;BME280;53789;51.392;10.234;2022-10-16T00:23:57;97879.53;;;14.23;87.11
66880;BME280;53789;51.392;10.234;2022-10-16T00:24:18;97878.75;;;14.22;86.53
66880;BME280;53789;51.392;10.234;2022-10-16T00:24:38;97875.97;;;14.22;86.33
66880;BME280;53789;51.392;10.234;2022-10-16T00:24:59;97883.13;;;14.23;86.50
66880;BME280;53789;51.392;10.234;2022-10-16T00:25:19;97877.59;;;14.23;86.99
66880;BME280;53789;51.392;10.234;2022-10-16T00:25:39;97875.66;;;14.24;86.52
66880;BME280;53789;51.392;10.234;2022-10-16T00:26:03;97883.59;;;14.25;86.71
66880;BME280;53789;51.392;10.234;2022-10-16T00:26:24;97883.59;;;14.25;86.69
66880;BME280;53789;51.392;10.234;2022-10-16T00:26:44;97886.38;;;14.25;86.48
66880;BME280;53789;51.392;10.234;2022-10-16T00:27:05;97878.88;;;14.26;86.56
66880;BME280;53789;51.392;10.234;2022-10-16T00:27:25;97882.47;;;14.26;86.48
66880;BME280;53789;51.392;10.234;2022-10-16T00:27:45;97881.28;;;14.27;86.67
66880;BME280;53789;51.392;10.234;2022-10-16T00:28:05;97877.72;;;14.27;86.42
66880;BME280;53789;51.392;10.234;2022-10-16T00:28:27;97881.28;;;14.27;86.75
66880;BME280;53789;51.392;10.234;2022-10-16T00:28:51;97880.50;;;14.27;86.88
66880;BME280;53789;51.392;10.234;2022-10-16T00:29:11;97880.50;;;14.27;86.69
66880;BME280;53789;51.392;10.234;2022-10-16T00:29:32;97882.13;;;14.28;86.52
66880;BME280;53789;51.392;10.234;2022-10-16T00:29:52;97877.38;;;14.28;86.70
66880;BME280;53789;51.392;10.234;2022-10-16T00:30:12;97876.25;;;14.30;86.97
66880;BME280;53789;51.392;10.234;2022-10-16T00:30:33;97881.78;;;14.30;86.15
66880;BME280;53789;51.392;10.234;2022-10-16T00:30:54;97873.47;;;14.30;86.18
66880;BME280;53789;51.392;10.234;2022-10-16T00:31:16;97880.59;;;14.31;86.19
66880;BME280;53789;51.392;10.234;2022-10-16T00:31:37;97880.59;;;14.31;86.13
66880;BME280;53789;51.392;10.234;2022-10-16T00:31:57;97888.56;;;14.32;86.23
66880;BME280;53789;51.392;10.234;2022-10-16T00:32:20;97877.84;;;14.31;86.53
66880;BME280;53789;51.392;10.234;2022-10-16T00:32:41;97883.38;;;14.31;86.32
66880;BME280;53789;51.392;10.234;2022-10-16T00:33:01;97881.44;;;14.31;86.07
66880;BME280;53789;51.392;10.234;2022-10-16T00:33:22;97885.00;;;14.32;86.47
66880;BME280;53789;51.392;10.234;2022-10-16T00:33:43;97885.00;;;14.32;85.67
66880;BME280;53789;51.392;10.234;2022-10-16T00:34:03;97887.75;;;14.32;86.11
66880;BME280;53789;51.392;10.234;2022-10-16T00:34:23;97883.88;;;14.33;86.16
66880;BME280;53789;51.392;10.234;2022-10-16T00:34:44;97873.94;;;14.32;85.97
66880;BME280;53789;51.392;10.234;2022-10-16T00:35:05;97894.94;;;14.33;85.78
66880;BME280;53789;51.392;10.234;2022-10-16T00:35:25;97890.19;;;14.33;85.99
66880;BME280;53789;51.392;10.234;2022-10-16T00:35:46;97893.78;;;14.34;85.58
66880;BME280;53789;51.392;10.234;2022-10-16T00:36:08;97895.72;;;14.33;86.02
66880;BME280;53789;51.392;10.234;2022-10-16T00:36:29;97899.31;;;14.34;85.72
66880;BME280;53789;51.392;10.234;2022-10-16T00:36:49;97891.03;;;14.34;85.94
66880;BME280;53789;51.392;10.234;2022-10-16T00:37:10;97898.16;;;14.35;85.71
66880;BME280;53789;51.392;10.234;2022-10-16T00:37:30;97903.69;;;14.35;85.58
66880;BME280;53789;51.392;10.234;2022-10-16T00:37:50;97901.75;;;14.35;85.70
66880;BME280;53789;51.392;10.234;2022-10-16T00:38:11;97897.81;;;14.36;85.93
66880;BME280;53789;51.392;10.234;2022-10-16T00:38:31;97898.97;;;14.35;85.52
66880;BME280;53789;51.392;10.234;2022-10-16T00:38:57;97903.34;;;14.36;86.14
66880;BME280;53789;51.392;10.234;2022-10-16T00:39:18;97897.47;;;14.38;85.42
66880;BME280;53789;51.392;10.234;2022-10-16T00:39:38;97901.41;;;14.37;85.87
66880;BME280;53789;51.392;10.234;2022-10-16T00:39:59;97897.81;;;14.36;86.26
66880;BME280;53789;51.392;10.234;2022-10-16T00:40:19;97900.91;;;14.35;86.44
66880;BME280;53789;51.392;10.234;2022-10-16T00:40:40;97902.53;;;14.36;86.28
66880;BME280;53789;51.392;10.234;2022-10-16T00:41:00;97904.97;;;14.37;86.54
66880;BME280;53789;51.392;10.234;2022-10-16T00:41:23;97893.56;;;14.39;85.92
66880;BME280;53789;51.392;10.234;2022-10-16T00:41:43;97896.31;;;14.39;85.37
66880;BME280;53789;51.392;10.234;2022-10-16T00:42:04;97903.50;;;14.40;86.18
66880;BME280;53789;51.392;10.234;2022-10-16T00:42:25;97899.91;;;14.39;85.88
66880;BME280;53789;51.392;10.234;2022-10-16T00:42:45;97894.03;;;14.41;85.95
66880;BME280;53789;51.392;10.234;2022-10-16T00:44:50;97889.66;;;14.40;85.30
66880;BME280;53789;51.392;10.234;2022-10-16T00:45:11;97878.59;;;14.40;85.95
66880;BME280;53789;51.392;10.234;2022-10-16T00:45:31;97881.34;;;14.40;85.52
66880;BME280;53789;51.392;10.234;2022-10-16T00:45:51;97882.16;;;14.40;85.49
66880;BME280;53789;51.392;10.234;2022-10-16T00:46:41;97876.63;;;14.40;85.68
66880;BME280;53789;51.392;10.234;2022-10-16T00:47:02;97882.94;;;14.41;85.32
66880;BME280;53789;51.392;10.234;2022-10-16T00:47:28;97881.00;;;14.41;85.35
66880;BME280;53789;51.392;10.234;2022-10-16T00:47:52;97879.38;;;14.40;85.57
66880;BME280;53789;51.392;10.234;2022-10-16T00:48:13;97882.16;;;14.40;85.31
66880;BME280;53789;51.392;10.234;2022-10-16T00:48:34;97879.72;;;14.39;85.60
66880;BME280;53789;51.392;10.234;2022-10-16T00:49:28;97874.19;;;14.39;86.05
66880;BME280;53789;51.392;10.234;2022-10-16T00:49:51;97876.97;;;14.39;85.45
66880;BME280;53789;51.392;10.234;2022-10-16T00:50:24;97868.66;;;14.39;85.47
66880;BME280;53789;51.392;10.234;2022-10-16T00:50:46;97870.97;;;14.37;85.74
66880;BME280;53789;51.392;10.234;2022-10-16T00:51:07;97872.13;;;14.36;85.84
66880;BME280;53789;51.392;10.234;2022-10-16T00:51:33;97861.06;;;14.36;85.62
66880;BME280;53789;51.392;10.234;2022-10-16T00:51:55;97866.59;;;14.36;86.24
66880;BME280;53789;51.392;10.234;2022-10-16T00:52:16;97863.81;;;14.36;86.08
66880;BME280;53789;51.392;10.234;2022-10-16T00:52:43;97868.22;;;14.37;85.78
66880;BME280;53789;51.392;10.234;2022-10-16T00:53:04;97865.44;;;14.37;85.74
66880;BME280;53789;51.392;10.234;2022-10-16T00:53:25;97864.63;;;14.36;85.80
66880;BME280;53789;51.392;10.234;2022-10-16T00:53:46;97860.25;;;14.35;85.52
66880;BME280;53789;51.392;10.234;2022-10-16T00:54:11;97857.13;;;14.37;85.18
66880;BME280;53789;51.392;10.234;2022-10-16T00:54:33;97861.84;;;14.36;85.40
66880;BME280;53789;51.392;10.234;2022-10-16T00:54:55;97864.63;;;14.36;85.57
66880;BME280;53789;51.392;10.234;2022-10-16T00:55:16;97863.81;;;14.36;84.90
66880;BME280;53789;51.392;10.234;2022-10-16T00:55:37;97858.28;;;14.36;85.54
66880;BME280;53789;51.392;10.234;2022-10-16T00:55:57;97864.28;;;14.38;85.09
66880;BME280;53789;51.392;10.234;2022-10-16T00:56:18;97859.91;;;14.37;85.49
66880;BME280;53789;51.392;10.234;2022-10-16T00:56:39;97859.91;;;14.37;85.08
66880;BME280;53789;51.392;10.234;2022-10-16T00:57:04;97860.72;;;14.37;85.21
66880;BME280;53789;51.392;10.234;2022-10-16T00:57:25;97867.88;;;14.38;85.11
66880;BME280;53789;51.392;10.234;2022-10-16T00:57:47;97863.13;;;14.39;85.13
66880;BME280;53789;51.392;10.234;2022-10-16T00:58:09;97863.13;;;14.39;84.84
66880;BME280;53789;51.392;10.234;2022-10-16T00:58:30;97866.69;;;14.39;85.29
66880;BME280;53789;51.392;10.234;2022-10-16T00:58:50;97866.69;;;14.39;85.16
66880;BME280;53789;51.392;10.234;2022-10-16T00:59:18;97872.22;;;14.39;85.18
66880;BME280;53789;51.392;10.234;2022-10-16T00:59:41;97866.69;;;14.39;85.39
66880;BME280;53789;51.392;10.234;2022-10-16T01:00:05;97866.69;;;14.39;84.84
66880;BME280;53789;51.392;10.234;2022-10-16T01:00:26;97865.56;;;14.40;85.39
66880;BME280;53789;51.392;10.234;2022-10-16T01:00:46;97871.09;;;14.40;85.33
66880;BME280;53789;51.392;10.234;2022-10-16T01:01:07;97868.31;;;14.40;85.61
66880;BME280;53789;51.392;10.234;2022-10-16T01:01:28;97872.72;;;14.41;85.43
66880;BME280;53789;51.392;10.234;2022-10-16T01:01:48;97874.66;;;14.41;84.76
66880;BME280;53789;51.392;10.234;2022-10-16T01:02:12;97878.25;;;14.41;85.33
66880;BME280;53789;51.392;10.234;2022-10-16T01:02:33;97880.19;;;14.41;85.45
66880;BME280;53789;51.392;10.234;2022-10-16T01:02:55;97888.16;;;14.42;85.23
66880;BME280;53789;51.392;10.234;2022-10-16T01:03:35;97888.16;;;14.42;85.53
66880;BME280;53789;51.392;10.234;2022-10-16T01:03:55;97879.03;;;14.42;85.51
66880;BME280;53789;51.392;10.234;2022-10-16T01:04:16;97885.72;;;14.41;85.36
66880;BME280;53789;51.392;10.234;2022-10-16T01:04:40;97886.56;;;14.41;85.05
66880;BME280;53789;51.392;10.234;2022-10-16T01:05:02;97885.72;;;14.41;85.16
66880;BME280;53789;51.392;10.234;2022-10-16T01:05:49;97884.56;;;14.42;85.46
66880;BME280;53789;51.392;10.234;2022-10-16T01:08:58;97877.41;;;14.41;84.81
66880;BME280;53789;51.392;10.234;2022-10-16T01:09:10;97889.31;;;14.41;85.63
66880;BME280;53789;51.392;10.234;2022-10-16T01:10:52;97889.66;;;14.40;85.76
66880;BME280;53789;51.392;10.234;2022-10-16T01:11:25;97888.47;;;14.41;85.57
66880;BME280;53789;51.392;10.234;2022-10-16T01:13:10;97885.72;;;14.41;86.23
66880;BME280;53789;51.392;10.234;2022-10-16T01:13:38;97888.97;;;14.43;85.37
66880;BME280;53789;51.392;10.234;2022-10-16T01:14:09;97880.66;;;14.43;85.20
66880;BME280;53789;51.392;10.234;2022-10-16T01:14:34;97888.16;;;14.42;85.26
66880;BME280;53789;51.392;10.234;2022-10-16T01:15:55;97886.22;;;14.43;85.87
66880;BME280;53789;51.392;10.234;2022-10-16T01:16:44;97876.72;;;14.44;84.82
66880;BME280;53789;51.392;10.234;2022-10-16T01:17:41;97879.50;;;14.44;85.43
66880;BME280;53789;51.392;10.234;2022-10-16T01:18:19;97875.59;;;14.45;85.55
66880;BME280;53789;51.392;10.234;2022-10-16T01:18:46;97872.81;;;14.45;84.83
66880;BME280;53789;51.392;10.234;2022-10-16T01:21:00;97877.22;;;14.46;85.26
66880;BME280;53789;51.392;10.234;2022-10-16T01:21:35;97883.56;;;14.46;85.50
66880;BME280;53789;51.392;10.234;2022-10-16T01:21:58;97881.63;;;14.47;84.72
66880;BME280;53789;51.392;10.234;2022-10-16T01:22:26;97885.19;;;14.48;85.48
66880;BME280;53789;51.392;10.234;2022-10-16T01:24:06;97891.50;;;14.48;84.97
66880;BME280;53789;51.392;10.234;2022-10-16T01:24:49;97885.19;;;14.48;85.12
66880;BME280;53789;51.392;10.234;2022-10-16T01:25:23;97882.41;;;14.48;85.28
66880;BME280;53789;51.392;10.234;2022-10-16T01:26:46;97880.44;;;14.48;85.17
66880;BME280;53789;51.392;10.234;2022-10-16T01:27:46;97881.63;;;14.47;85.37
66880;BME280;53789;51.392;10.234;2022-10-16T01:28:12;97878.84;;;14.47;85.18
66880;BME280;53789;51.392;10.234;2022-10-16T01:28:55;97878.84;;;14.47;84.99
66880;BME280;53789;51.392;10.234;2022-10-16T01:29:32;97885.53;;;14.46;85.14
66880;BME280;53789;51.392;10.234;2022-10-16T01:30:07;97882.75;;;14.46;84.89
66880;BME280;53789;51.392;10.234;2022-10-16T01:30:33;97888.63;;;14.44;85.15
66880;BME280;53789;51.392;10.234;2022-10-16T01:30:58;97891.41;;;14.44;86.00
66880;BME280;53789;51.392;10.234;2022-10-16T01:31:26;97888.97;;;14.43;85.02
66880;BME280;53789;51.392;10.234;2022-10-16T01:31:54;97895.66;;;14.42;85.77
66880;BME280;53789;51.392;10.234;2022-10-16T01:32:35;97903.94;;;14.42;85.76
66880;BME280;53789;51.392;10.234;2022-10-16T01:33:45;97905.44;;;14.39;86.25
66880;BME280;53789;51.392;10.234;2022-10-16T01:34:37;97900.56;;;14.36;85.86
66880;BME280;53789;51.392;10.234;2022-10-16T01:35:29;97899.78;;;14.36;86.82
66880;BME280;53789;51.392;10.234;2022-10-16T01:36:01;97898.97;;;14.35;86.79
66880;BME280;53789;51.392;10.234;2022-10-16T01:36:29;97896.22;;;14.35;86.90
66880;BME280;53789;51.392;10.234;2022-10-16T01:36:57;97906.44;;;14.35;86.48
66880;BME280;53789;51.392;10.234;2022-10-16T01:37:44;97904.50;;;14.35;87.04
66880;BME280;53789;51.392;10.234;2022-10-16T01:38:36;97904.72;;;14.30;87.10
66880;BME280;53789;51.392;10.234;2022-10-16T01:39:00;97904.72;;;14.30;87.36
66880;BME280;53789;51.392;10.234;2022-10-16T01:39:29;97913.34;;;14.28;87.38
66880;BME280;53789;51.392;10.234;2022-10-16T01:39:55;97905.84;;;14.29;87.10
66880;BME280;53789;51.392;10.234;2022-10-16T01:40:20;97899.50;;;14.28;87.25
66880;BME280;53789;51.392;10.234;2022-10-16T01:40:51;97906.53;;;14.26;87.21
66880;BME280;53789;51.392;10.234;2022-10-16T01:41:23;97896.47;;;14.21;87.37
66880;BME280;53789;51.392;10.234;2022-10-16T01:41:58;97900.06;;;14.22;87.19
66880;BME280;53789;51.392;10.234;2022-10-16T01:42:30;97894.84;;;14.20;86.93
66880;BME280;53789;51.392;10.234;2022-10-16T01:43:08;97896.38;;;14.18;86.39
66880;BME280;53789;51.392;10.234;2022-10-16T01:43:38;97901.91;;;14.18;86.56
66880;BME280;53789;51.392;10.234;2022-10-16T01:44:31;97906.59;;;14.17;85.81
66880;BME280;53789;51.392;10.234;2022-10-16T01:44:56;97907.44;;;14.18;86.17
66880;BME280;53789;51.392;10.234;2022-10-16T01:45:21;97897.16;;;14.18;85.91
66880;BME280;53789;51.392;10.234;2022-10-16T01:45:44;97899.94;;;14.18;85.76
66880;BME280;53789;51.392;10.234;2022-10-16T01:46:08;97907.09;;;14.19;85.81
66880;BME280;53789;51.392;10.234;2022-10-16T01:46:31;97907.09;;;14.19;85.60
66880;BME280;53789;51.392;10.234;2022-10-16T01:46:55;97907.88;;;14.20;85.41
66880;BME280;53789;51.392;10.234;2022-10-16T01:47:17;97904.31;;;14.19;85.42
66880;BME280;53789;51.392;10.234;2022-10-16T01:47:40;97898.44;;;14.21;86.30
66880;BME280;53789;51.392;10.234;2022-10-16T01:48:05;97893.72;;;14.21;85.53
66880;BME280;53789;51.392;10.234;2022-10-16T01:48:26;97900.06;;;14.22;85.57
66880;BME280;53789;51.392;10.234;2022-10-16T01:48:51;97902.00;;;14.21;85.95
66880;BME280;53789;51.392;10.234;2022-10-16T01:49:13;97898.44;;;14.21;85.80
66880;BME280;53789;51.392;10.234;2022-10-16T01:49:36;97904.78;;;14.21;85.78
66880;BME280;53789;51.392;10.234;2022-10-16T01:50:01;97906.41;;;14.22;85.82
66880;BME280;53789;51.392;10.234;2022-10-16T01:50:24;97902.00;;;14.21;86.11
66880;BME280;53789;51.392;10.234;2022-10-16T01:51:03;97909.97;;;14.23;86.20
66880;BME280;53789;51.392;10.234;2022-10-16T01:51:27;97902.84;;;14.22;85.82
66880;BME280;53789;51.392;10.234;2022-10-16T01:51:54;97897.31;;;14.22;86.19
66880;BME280;53789;51.392;10.234;2022-10-16T01:52:22;97900.88;;;14.22;86.64
66880;BME280;53789;51.392;10.234;2022-10-16T01:52:48;97905.59;;;14.22;86.49
66880;BME280;53789;51.392;10.234;2022-10-16T01:53:14;97903.16;;;14.20;86.16
66880;BME280;53789;51.392;10.234;2022-10-16T01:53:36;97908.69;;;14.20;86.42
66880;BME280;53789;51.392;10.234;2022-10-16T01:54:00;97908.38;;;14.22;86.32
66880;BME280;53789;51.392;10.234;2022-10-16T01:54:27;97907.53;;;14.21;86.85
66880;BME280;53789;51.392;10.234;2022-10-16T01:54:52;97907.53;;;14.21;86.71
66880;BME280;53789;51.392;10.234;2022-10-16T01:55:20;97904.78;;;14.21;86.34
66880;BME280;53789;51.392;10.234;2022-10-16T01:55:46;97904.78;;;14.21;87.18
66880;BME280;53789;51.392;10.234;2022-10-16T01:56:11;97903.66;;;14.22;86.72
66880;BME280;53789;51.392;10.234;2022-10-16T01:56:35;97905.59;;;14.22;86.88
66880;BME280;53789;51.392;10.234;2022-10-16T01:56:58;97904.78;;;14.21;86.89
66880;BME280;53789;51.392;10.234;2022-10-16T01:57:21;97906.41;;;14.22;87.04
66880;BME280;53789;51.392;10.234;2022-10-16T01:57:48;97904.44;;;14.23;86.89
66880;BME280;53789;51.392;10.234;2022-10-16T01:58:13;97903.31;;;14.24;87.22
66880;BME280;53789;51.392;10.234;2022-10-16T01:58:37;97908.03;;;14.23;87.10
66880;BME280;53789;51.392;10.234;2022-10-16T01:59:06;97904.09;;;14.24;86.94
66880;BME280;53789;51.392;10.234;2022-10-16T01:59:32;97902.16;;;14.25;86.75
66880;BME280;53789;51.392;10.234;2022-10-16T02:00:03;97901.81;;;14.26;87.35
66880;BME280;53789;51.392;10.234;2022-10-16T02:00:26;97909.28;;;14.26;87.39
66880;BME280;53789;51.392;10.234;2022-10-16T02:00:47;97909.28;;;14.26;86.93
66880;BME280;53789;51.392;10.234;2022-10-16T02:01:11;97907.34;;;14.26;87.22
66880;BME280;53789;51.392;10.234;2022-10-16T02:01:38;97897.88;;;14.27;87.05
66880;BME280;53789;51.392;10.234;2022-10-16T02:02:05;97900.19;;;14.25;87.30
66880;BME280;53789;51.392;10.234;2022-10-16T02:02:29;97901.00;;;14.26;87.07
66880;BME280;53789;51.392;10.234;2022-10-16T02:02:53;97905.38;;;14.27;87.14
66880;BME280;53789;51.392;10.234;2022-10-16T02:03:18;97908.50;;;14.25;87.02
66880;BME280;53789;51.392;10.234;2022-10-16T02:03:42;97910.13;;;14.26;87.05
66880;BME280;53789;51.392;10.234;2022-10-16T02:04:15;97912.06;;;14.26;87.02
66880;BME280;53789;51.392;10.234;2022-10-16T02:05:06;97919.22;;;14.27;87.31
66880;BME280;53789;51.392;10.234;2022-10-16T02:05:41;97911.72;;;14.27;87.44
66880;BME280;53789;51.392;10.234;2022-10-16T02:06:06;97914.81;;;14.26;87.14
66880;BME280;53789;51.392;10.234;2022-10-16T02:06:27;97918.41;;;14.26;86.92
66880;BME280;53789;51.392;10.234;2022-10-16T02:06:48;97916.44;;;14.27;87.43
66880;BME280;53789;51.392;10.234;2022-10-16T02:07:08;97915.31;;;14.28;87.71
66880;BME280;53789;51.392;10.234;2022-10-16T02:07:29;97912.88;;;14.26;87.46
66880;BME280;53789;51.392;10.234;2022-10-16T02:07:49;97917.59;;;14.26;87.14
66880;BME280;53789;51.392;10.234;2022-10-16T02:08:10;97916.78;;;14.25;87.52
66880;BME280;53789;51.392;10.234;2022-10-16T02:08:31;97911.25;;;14.25;87.84
66880;BME280;53789;51.392;10.234;2022-10-16T02:08:51;97916.78;;;14.25;87.71
66880;BME280;53789;51.392;10.234;2022-10-16T02:09:12;97914.38;;;14.24;87.39
66880;BME280;53789;51.392;10.234;2022-10-16T02:09:34;97910.81;;;14.23;87.37
66880;BME280;53789;51.392;10.234;2022-10-16T02:09:55;97919.09;;;14.23;87.59
66880;BME280;53789;51.392;10.234;2022-10-16T02:10:17;97916.34;;;14.23;87.67
66880;BME280;53789;51.392;10.234;2022-10-16T02:10:38;97907.22;;;14.23;87.90
66880;BME280;53789;51.392;10.234;2022-10-16T02:11:00;97907.53;;;14.21;87.34
66880;BME280;53789;51.392;10.234;2022-10-16T02:11:20;97908.38;;;14.22;87.95
66880;BME280;53789;51.392;10.234;2022-10-16T02:11:41;97904.78;;;14.21;87.65
66880;BME280;53789;51.392;10.234;2022-10-16T02:12:28;97904.44;;;14.23;88.19
66880;BME280;53789;51.392;10.234;2022-10-16T02:12:59;97906.41;;;14.22;87.67
66880;BME280;53789;51.392;10.234;2022-10-16T02:13:37;97907.22;;;14.23;88.07
66880;BME280;53789;51.392;10.234;2022-10-16T02:14:02;97907.22;;;14.23;88.24
66880;BME280;53789;51.392;10.234;2022-10-16T02:14:23;97908.03;;;14.23;88.34
66880;BME280;53789;51.392;10.234;2022-10-16T02:14:44;97911.59;;;14.24;87.49
66880;BME280;53789;51.392;10.234;2022-10-16T02:15:05;97912.75;;;14.23;87.44
66880;BME280;53789;51.392;10.234;2022-10-16T02:15:26;97921.88;;;14.23;87.61
66880;BME280;53789;51.392;10.234;2022-10-16T02:15:46;97920.25;;;14.22;87.49
66880;BME280;53789;51.392;10.234;2022-10-16T02:16:09;97921.72;;;14.20;88.07
66880;BME280;53789;51.392;10.234;2022-10-16T02:16:36;97919.75;;;14.20;87.59
66880;BME280;53789;51.392;10.234;2022-10-16T02:16:57;97920.56;;;14.21;88.02
66880;BME280;53789;51.392;10.234;2022-10-16T02:17:18;97913.41;;;14.20;87.82
66880;BME280;53789;51.392;10.234;2022-10-16T02:17:38;97920.91;;;14.19;87.90
66880;BME280;53789;51.392;10.234;2022-10-16T02:17:58;97922.50;;;14.20;87.76
66880;BME280;53789;51.392;10.234;2022-10-16T02:18:19;97913.75;;;14.18;87.92
66880;BME280;53789;51.392;10.234;2022-10-16T02:18:42;97914.56;;;14.19;87.51
66880;BME280;53789;51.392;10.234;2022-10-16T02:19:03;97910.66;;;14.20;87.66
66880;BME280;53789;51.392;10.234;2022-10-16T02:19:24;97916.97;;;14.20;87.69
66880;BME280;53789;51.392;10.234;2022-10-16T02:19:48;97913.75;;;14.18;87.66
66880;BME280;53789;51.392;10.234;2022-10-16T02:20:09;97912.97;;;14.18;87.71
66880;BME280;53789;51.392;10.234;2022-10-16T02:20:37;97914.91;;;14.17;87.74
66880;BME280;53789;51.392;10.234;2022-10-16T02:21:23;97905.81;;;14.17;87.61